createdAt,value
2017-09-19T00:01:52.025Z,12.23
2017-09-19T00:04:35.257Z,11.90
2017-09-19T00:07:03.294Z,12.35
2017-09-19T00:09:31.321Z,12.90
2017-09-19T00:12:00.328Z,11.63
2017-09-19T00:14:28.348Z,11.52
2017-09-19T00:17:06.344Z,11.10
2017-09-19T00:19:34.365Z,11.95
2017-09-19T00:22:02.709Z,11.95
2017-09-19T00:24:30.752Z,13.18
2017-09-19T00:27:03.272Z,11.05
2017-09-19T00:29:32.288Z,11.70
2017-09-19T00:32:02.997Z,12.05
2017-09-19T00:34:31.056Z,12.18
2017-09-19T00:36:59.089Z,12.48
2017-09-19T00:39:27.136Z,11.55
2017-09-19T00:41:59.496Z,12.45
2017-09-19T00:44:30.633Z,12.10
2017-09-19T00:46:58.721Z,13.55
2017-09-19T00:49:29.433Z,14.15
2017-09-19T00:52:02.533Z,13.25
2017-09-19T00:54:37.013Z,14.55
2017-09-19T00:57:05.048Z,13.80
2017-09-19T00:59:55.980Z,12.57
2017-09-19T01:02:24.013Z,12.98
2017-09-19T01:04:53.705Z,13.40
2017-09-19T01:07:27.916Z,12.88
2017-09-19T01:09:55.909Z,12.43
2017-09-19T01:12:24.700Z,15.00
2017-09-19T01:14:54.396Z,14.43
2017-09-19T01:17:23.196Z,13.65
2017-09-19T01:19:56.944Z,13.32
2017-09-19T01:22:24.947Z,12.45
2017-09-19T01:24:53.872Z,13.27
2017-09-19T01:27:27.848Z,13.05
2017-09-19T01:29:56.756Z,13.20
2017-09-19T01:32:25.552Z,13.35
2017-09-19T01:34:53.592Z,12.30
2017-09-19T01:37:22.604Z,11.80
2017-09-19T01:39:57.244Z,11.70
2017-09-19T01:42:31.591Z,11.55
2017-09-19T01:44:59.656Z,11.55
2017-09-19T01:47:29.348Z,10.55
2017-09-19T01:49:57.372Z,11.25
2017-09-19T01:52:25.424Z,11.55
2017-09-19T01:54:57.716Z,10.27
2017-09-19T01:57:25.748Z,11.35
2017-09-19T01:59:53.776Z,12.20
2017-09-19T02:02:24.479Z,11.30
2017-09-19T02:04:52.540Z,11.50
2017-09-19T02:07:24.307Z,11.57
2017-09-19T02:10:05.556Z,10.93
2017-09-19T02:12:38.887Z,11.27
2017-09-19T02:15:06.920Z,10.15
2017-09-19T02:17:36.908Z,11.15
2017-09-19T02:20:04.939Z,11.23
2017-09-19T02:22:33.931Z,9.77
2017-09-19T02:25:01.954Z,12.20
2017-09-19T02:27:35.507Z,12.70
2017-09-19T02:30:05.569Z,11.68
2017-09-19T02:32:33.579Z,11.10
2017-09-19T02:35:03.616Z,10.82
2017-09-19T02:37:38.284Z,11.40
2017-09-19T02:40:06.323Z,11.80
2017-09-19T02:42:39.282Z,11.30
2017-09-19T02:45:19.825Z,11.93
2017-09-19T02:47:47.871Z,11.45
2017-09-19T02:53:09.356Z,10.90
2017-09-19T02:55:42.070Z,10.98
2017-09-19T02:58:10.051Z,11.35
2017-09-19T03:00:40.032Z,12.73
2017-09-19T03:03:08.823Z,12.90
2017-09-19T03:05:50.739Z,13.10
2017-09-19T03:08:19.690Z,12.68
2017-09-19T03:10:48.671Z,13.00
2017-09-19T03:13:24.267Z,13.55
2017-09-19T03:16:00.450Z,14.70
2017-09-19T03:18:29.283Z,15.00
2017-09-19T03:20:59.283Z,13.32
2017-09-19T03:23:31.387Z,12.93
2017-09-19T03:26:00.343Z,13.50
2017-09-19T03:28:28.362Z,13.62
2017-09-19T03:30:57.348Z,13.43
2017-09-19T03:33:25.367Z,13.40
2017-09-19T03:35:53.383Z,14.45
2017-09-19T03:38:22.362Z,12.82
2017-09-19T03:40:53.066Z,13.62
2017-09-19T03:43:21.083Z,13.57
2017-09-19T03:45:50.040Z,13.80
2017-09-19T03:48:21.082Z,12.95
2017-09-19T03:50:49.111Z,13.77
2017-09-19T03:53:18.158Z,13.43
2017-09-19T03:55:49.906Z,14.20
2017-09-19T04:01:14.299Z,13.45
2017-09-19T04:03:48.830Z,12.55
2017-09-19T04:06:23.362Z,13.23
2017-09-19T04:09:05.606Z,14.10
2017-09-19T04:11:39.874Z,13.80
2017-09-19T04:14:15.678Z,13.68
2017-09-19T04:16:47.179Z,13.23
2017-09-19T04:19:35.055Z,14.20
2017-09-19T04:22:06.130Z,14.45
2017-09-19T04:24:34.171Z,14.52
2017-09-19T04:27:02.166Z,14.13
2017-09-19T04:29:30.206Z,15.30
2017-09-19T04:31:58.226Z,16.02
2017-09-19T04:34:27.196Z,16.27
2017-09-19T04:37:00.226Z,17.65
2017-09-19T04:39:28.262Z,16.05
2017-09-19T04:41:56.312Z,17.23
2017-09-19T04:44:27.394Z,16.95
2017-09-19T04:46:57.182Z,17.10
2017-09-19T04:49:29.350Z,16.15
2017-09-19T04:52:00.595Z,17.62
2017-09-19T04:54:30.622Z,17.33
2017-09-19T04:57:04.705Z,16.48
2017-09-19T04:59:35.718Z,16.80
2017-09-19T05:02:03.735Z,15.85
2017-09-19T05:04:31.758Z,16.75
2017-09-19T05:06:59.794Z,16.05
2017-09-19T05:09:30.495Z,17.33
2017-09-19T05:14:39.258Z,18.48
2017-09-19T05:17:27.141Z,16.83
2017-09-19T05:19:57.102Z,19.33
2017-09-19T05:22:28.150Z,17.52
2017-09-19T05:24:57.962Z,18.55
2017-09-19T05:27:25.990Z,19.45
2017-09-19T05:29:54.011Z,18.40
2017-09-19T05:32:22.814Z,16.40
2017-09-19T05:35:07.390Z,15.43
2017-09-19T05:37:36.398Z,17.60
2017-09-19T05:40:04.430Z,17.33
2017-09-19T05:42:32.526Z,17.02
2017-09-19T05:45:01.306Z,17.40
2017-09-19T05:47:32.154Z,18.12
2017-09-19T05:50:01.250Z,19.45
2017-09-19T05:52:41.606Z,17.27
2017-09-19T05:55:16.354Z,18.55
2017-09-19T05:57:46.373Z,17.33
2017-09-19T06:00:14.422Z,19.30
2017-09-19T06:02:47.092Z,16.50
2017-09-19T06:05:20.830Z,16.62
2017-09-19T06:07:49.994Z,18.20
2017-09-19T06:10:32.889Z,16.08
2017-09-19T06:13:01.873Z,17.33
2017-09-19T06:15:30.654Z,16.95
2017-09-19T06:18:00.426Z,16.67
2017-09-19T06:20:41.074Z,16.25
2017-09-19T06:23:09.106Z,16.35
2017-09-19T06:25:37.906Z,17.35
2017-09-19T06:28:05.945Z,18.50
2017-09-19T06:30:36.683Z,16.17
2017-09-19T06:33:09.271Z,18.75
2017-09-19T06:35:38.078Z,18.30
2017-09-19T06:38:08.037Z,18.08
2017-09-19T06:40:39.925Z,17.40
2017-09-19T06:43:10.637Z,18.92
2017-09-19T06:45:39.670Z,17.83
2017-09-19T06:48:07.697Z,16.40
2017-09-19T06:50:36.693Z,16.77
2017-09-19T06:53:05.714Z,15.20
2017-09-19T06:55:34.714Z,14.73
2017-09-19T06:58:09.317Z,15.25
2017-09-19T07:00:40.029Z,15.40
2017-09-19T07:03:09.054Z,14.50
2017-09-19T07:05:48.537Z,15.57
2017-09-19T07:08:33.084Z,16.50
2017-09-19T07:11:01.101Z,13.73
2017-09-19T07:13:33.436Z,15.77
2017-09-19T07:16:04.961Z,14.73
2017-09-19T07:18:33.677Z,13.70
2017-09-19T07:21:01.701Z,15.05
2017-09-19T07:23:29.749Z,13.00
2017-09-19T07:26:03.193Z,11.47
2017-09-19T07:28:37.633Z,10.53
2017-09-19T07:31:05.677Z,10.47
2017-09-19T07:33:37.601Z,10.10
2017-09-19T07:36:06.413Z,9.73
2017-09-19T07:38:36.361Z,8.07
2017-09-19T07:41:05.285Z,9.93
2017-09-19T07:43:33.329Z,9.30
2017-09-19T07:46:01.385Z,8.10
2017-09-19T07:48:36.777Z,8.33
2017-09-19T07:51:04.796Z,7.03
2017-09-19T07:53:42.261Z,7.90
2017-09-19T07:56:10.313Z,7.30
2017-09-19T07:58:39.117Z,7.23
2017-09-19T08:01:07.217Z,7.10
2017-09-19T08:03:42.692Z,7.40
2017-09-19T08:06:17.211Z,7.50
2017-09-19T08:08:45.284Z,7.37
2017-09-19T08:11:14.268Z,7.53
2017-09-19T08:13:46.836Z,7.33
2017-09-19T08:16:18.579Z,6.23
2017-09-19T08:18:46.625Z,7.87
2017-09-19T08:21:15.600Z,6.50
2017-09-19T08:23:51.836Z,6.70
2017-09-19T08:26:19.864Z,6.47
2017-09-19T08:28:49.816Z,5.97
2017-09-19T08:31:17.848Z,5.50
2017-09-19T08:33:49.577Z,5.60
2017-09-19T08:36:19.252Z,5.70
2017-09-19T08:38:57.780Z,4.70
2017-09-19T08:41:36.868Z,5.47
2017-09-19T08:44:04.976Z,5.17
2017-09-19T08:46:32.976Z,4.63
2017-09-19T08:49:01.043Z,5.17
2017-09-19T08:51:30.012Z,5.67
2017-09-19T08:54:03.890Z,4.67
2017-09-19T08:56:38.632Z,5.17
2017-09-19T08:59:07.552Z,4.50
2017-09-19T09:01:36.344Z,5.20
2017-09-19T09:04:06.092Z,5.00
2017-09-19T09:06:35.020Z,5.40
2017-09-19T09:09:03.044Z,4.90
2017-09-19T09:11:31.080Z,5.27
2017-09-19T09:14:04.352Z,4.57
2017-09-19T09:16:50.840Z,5.50
2017-09-19T09:19:29.042Z,5.00
2017-09-19T09:22:04.836Z,4.77
2017-09-19T09:24:47.240Z,3.83
2017-09-19T09:27:17.980Z,3.73
2017-09-19T09:29:47.779Z,3.70
2017-09-19T09:32:18.507Z,4.00
2017-09-19T09:34:49.843Z,4.80
2017-09-19T09:37:42.563Z,4.03
2017-09-19T09:40:10.631Z,3.27
2017-09-19T09:42:39.448Z,3.93
2017-09-19T09:45:11.716Z,3.63
2017-09-19T09:47:39.747Z,3.70
2017-09-19T09:50:28.616Z,3.80
2017-09-19T09:53:01.448Z,3.37
2017-09-19T09:55:32.163Z,3.80
2017-09-19T09:58:01.087Z,2.90
2017-09-19T10:00:35.604Z,3.00
2017-09-19T10:03:04.429Z,3.23
2017-09-19T10:05:43.687Z,2.30
2017-09-19T10:08:13.728Z,4.53
2017-09-19T10:10:42.708Z,3.63
2017-09-19T10:13:11.712Z,4.23
2017-09-19T10:15:41.776Z,2.60
2017-09-19T10:18:09.779Z,3.17
2017-09-19T10:20:38.759Z,2.50
2017-09-19T10:23:14.307Z,2.83
2017-09-19T10:25:42.349Z,3.47
2017-09-19T10:28:10.347Z,2.83
2017-09-19T10:30:48.548Z,3.10
2017-09-19T10:33:21.751Z,2.70
2017-09-19T10:35:53.627Z,3.03
2017-09-19T10:38:22.615Z,3.00
2017-09-19T10:40:51.592Z,3.10
2017-09-19T10:43:24.027Z,2.87
2017-09-19T10:45:52.043Z,2.27
2017-09-19T10:48:20.120Z,2.07
2017-09-19T10:50:51.395Z,2.27
2017-09-19T10:53:23.115Z,1.60
2017-09-19T10:55:52.131Z,2.30
2017-09-19T10:58:21.102Z,2.20
2017-09-19T11:01:03.414Z,2.90
2017-09-19T11:06:26.890Z,2.57
2017-09-19T11:09:00.691Z,2.50
2017-09-19T11:11:28.735Z,2.63
2017-09-19T11:14:00.315Z,2.60
2017-09-19T11:16:28.339Z,4.50
2017-09-19T11:18:57.362Z,2.50
2017-09-19T11:21:26.423Z,17.27
2017-09-19T11:24:04.867Z,3.53
2017-09-19T11:26:32.894Z,4.00
2017-09-19T11:29:00.923Z,3.10
2017-09-19T11:31:30.985Z,3.60
2017-09-19T11:34:00.995Z,3.80
2017-09-19T11:36:32.259Z,3.60
2017-09-19T11:39:00.270Z,4.80
2017-09-19T11:41:41.335Z,5.80
2017-09-19T11:44:11.082Z,3.40
2017-09-19T11:46:44.466Z,3.83
2017-09-19T11:49:13.442Z,2.80
2017-09-19T11:51:43.466Z,3.87
2017-09-19T11:54:15.113Z,3.57
2017-09-19T11:56:44.126Z,3.50
2017-09-19T11:59:22.610Z,4.10
2017-09-19T12:01:52.650Z,3.30
2017-09-19T12:04:25.639Z,2.67
2017-09-19T12:07:04.032Z,2.70
2017-09-19T12:12:37.947Z,2.50
2017-09-19T12:15:12.862Z,2.83
2017-09-19T12:17:42.811Z,2.43
2017-09-19T12:20:22.526Z,2.47
2017-09-19T12:23:04.194Z,2.27
2017-09-19T12:25:32.214Z,2.13
2017-09-19T12:28:03.582Z,2.53
2017-09-19T12:30:37.270Z,2.20
2017-09-19T12:33:05.294Z,2.10
2017-09-19T12:35:33.306Z,2.27
2017-09-19T12:38:02.313Z,2.53
2017-09-19T12:43:30.982Z,4.63
2017-09-19T12:46:02.462Z,10.97
2017-09-19T12:48:31.450Z,2.83
2017-09-19T12:50:59.510Z,1.50
2017-09-19T12:53:27.546Z,1.50
2017-09-19T12:56:03.342Z,1.30
2017-09-19T12:58:41.613Z,2.90
2017-09-19T13:01:14.022Z,2.00
2017-09-19T13:03:45.146Z,1.40
2017-09-19T13:06:15.214Z,1.40
2017-09-19T13:08:43.250Z,1.50
2017-09-19T13:11:12.294Z,1.70
2017-09-19T13:13:58.146Z,1.83
2017-09-19T13:16:38.050Z,2.00
2017-09-19T13:19:07.998Z,1.30
2017-09-19T13:21:42.883Z,1.80
2017-09-19T13:24:16.818Z,2.10
2017-09-19T13:26:49.446Z,1.67
2017-09-19T13:29:19.214Z,1.53
2017-09-19T13:32:00.926Z,1.50
2017-09-19T13:34:29.726Z,1.23
2017-09-19T13:37:03.798Z,1.30
2017-09-19T13:39:31.837Z,1.80
2017-09-19T13:42:01.785Z,1.60
2017-09-19T13:44:33.562Z,2.67
2017-09-19T13:47:01.585Z,1.47
2017-09-19T13:49:29.605Z,1.50
2017-09-19T13:52:04.974Z,1.30
2017-09-19T13:54:50.681Z,1.30
2017-09-19T13:57:29.822Z,3.80
2017-09-19T14:00:01.086Z,1.20
2017-09-19T14:02:29.125Z,1.27
2017-09-19T14:05:03.501Z,1.37
2017-09-19T14:07:35.962Z,1.40
2017-09-19T14:10:04.122Z,3.33
2017-09-19T14:12:32.133Z,2.00
2017-09-19T14:15:00.274Z,2.00
2017-09-19T14:17:42.505Z,1.93
2017-09-19T14:20:11.170Z,1.70
2017-09-19T14:22:40.141Z,1.40
2017-09-19T14:25:09.141Z,4.97
2017-09-19T14:27:40.793Z,10.20
2017-09-19T14:30:08.837Z,1.77
2017-09-19T14:32:37.005Z,1.57
2017-09-19T14:35:09.030Z,2.07
2017-09-19T14:37:48.241Z,1.37
2017-09-19T14:40:20.057Z,1.50
2017-09-19T14:42:48.873Z,1.30
2017-09-19T14:45:16.929Z,1.50
2017-09-19T14:47:44.957Z,1.33
2017-09-19T14:50:12.985Z,1.20
2017-09-19T14:52:45.569Z,1.13
2017-09-19T14:55:13.593Z,1.37
2017-09-19T14:58:00.792Z,1.97
2017-09-19T15:00:28.820Z,1.90
2017-09-19T15:03:05.093Z,1.50
2017-09-19T15:05:35.113Z,1.50
2017-09-19T15:08:03.177Z,1.77
2017-09-19T15:10:32.189Z,2.00
2017-09-19T15:13:02.984Z,2.03
2017-09-19T15:15:31.041Z,1.50
2017-09-19T15:17:59.060Z,1.80
2017-09-19T15:20:27.904Z,1.80
2017-09-19T15:23:01.440Z,3.40
2017-09-19T15:25:30.544Z,4.27
2017-09-19T15:28:11.327Z,2.70
2017-09-19T15:30:40.421Z,1.80
2017-09-19T15:33:11.128Z,2.00
2017-09-19T15:35:40.116Z,1.93
2017-09-19T15:38:08.131Z,1.73
2017-09-19T15:40:37.072Z,2.00
2017-09-19T15:43:05.104Z,2.00
2017-09-19T15:45:35.072Z,2.10
2017-09-19T15:48:03.092Z,2.33
2017-09-19T15:50:32.108Z,2.33
2017-09-19T15:53:00.180Z,3.07
2017-09-19T15:55:32.785Z,2.57
2017-09-19T15:58:00.796Z,2.83
2017-09-19T16:00:30.768Z,2.60
2017-09-19T16:03:01.480Z,3.00
2017-09-19T16:05:29.500Z,2.97
2017-09-19T16:08:05.296Z,2.67
2017-09-19T16:10:34.220Z,2.50
2017-09-19T16:13:03.012Z,2.80
2017-09-19T16:15:35.487Z,2.70
2017-09-19T16:18:05.268Z,2.20
2017-09-19T16:20:33.292Z,2.63
2017-09-19T16:23:02.358Z,3.10
2017-09-19T16:25:30.384Z,3.00
2017-09-19T16:28:01.956Z,2.57
2017-09-19T16:30:29.983Z,2.20
2017-09-19T16:32:59.984Z,3.10
2017-09-19T16:35:29.641Z,3.27
2017-09-19T16:38:02.765Z,3.30
2017-09-19T16:43:26.949Z,3.10
2017-09-19T16:45:54.996Z,3.30
2017-09-19T16:48:24.868Z,3.13
2017-09-19T16:50:58.072Z,3.30
2017-09-19T16:53:26.092Z,5.17
2017-09-19T16:55:56.816Z,8.27
2017-09-19T16:58:28.992Z,10.10
2017-09-19T17:00:57.969Z,4.37
2017-09-19T17:03:31.712Z,5.97
2017-09-19T17:06:02.463Z,4.87
2017-09-19T17:08:30.484Z,3.70
2017-09-19T17:11:02.461Z,3.13
2017-09-19T17:13:31.243Z,2.50
2017-09-19T17:16:01.036Z,5.27
2017-09-19T17:18:31.064Z,6.40
2017-09-19T17:20:59.087Z,5.90
2017-09-19T17:23:30.899Z,5.53
2017-09-19T17:25:59.687Z,5.07
2017-09-19T17:28:50.027Z,6.00
2017-09-19T17:31:19.091Z,4.00
2017-09-19T17:33:48.800Z,8.03
2017-09-19T17:36:16.827Z,4.40
2017-09-19T17:38:44.865Z,4.15
2017-09-19T17:41:15.227Z,4.18
2017-09-19T17:43:44.215Z,7.43
2017-09-19T17:46:19.163Z,6.30
2017-09-19T17:48:49.903Z,4.10
2017-09-19T17:51:26.983Z,3.92
2017-09-19T17:53:59.127Z,3.65
2017-09-19T17:56:28.839Z,6.47
2017-09-19T17:58:58.968Z,7.82
2017-09-19T18:01:26.987Z,6.97
2017-09-19T18:04:02.283Z,6.30
2017-09-19T18:06:30.275Z,3.90
2017-09-19T18:08:58.295Z,4.75
2017-09-19T18:11:27.319Z,4.85
2017-09-19T18:13:57.102Z,5.35
2017-09-19T18:16:26.111Z,3.85
2017-09-19T18:19:02.127Z,3.67
2017-09-19T18:21:30.184Z,3.60
2017-09-19T18:23:59.127Z,5.78
2017-09-19T18:26:35.567Z,3.85
2017-09-19T18:29:03.587Z,4.20
2017-09-19T18:31:38.302Z,3.83
2017-09-19T18:34:06.524Z,7.35
2017-09-19T18:36:36.459Z,4.72
2017-09-19T18:39:14.965Z,7.18
2017-09-19T18:41:46.222Z,7.00
2017-09-19T18:44:15.287Z,7.20
2017-09-19T18:46:45.057Z,8.00
2017-09-19T18:49:13.846Z,7.65
2017-09-19T18:51:42.642Z,10.38
2017-09-19T18:54:11.451Z,10.23
2017-09-19T18:56:41.414Z,9.85
2017-09-19T18:59:11.431Z,10.50
2017-09-19T19:01:39.471Z,10.82
2017-09-19T19:04:09.287Z,10.02
2017-09-19T19:06:42.615Z,10.35
2017-09-19T19:09:13.643Z,8.77
2017-09-19T19:11:47.463Z,10.40
2017-09-19T19:14:15.510Z,10.15
2017-09-19T19:16:43.522Z,9.07
2017-09-19T19:19:11.546Z,8.85
2017-09-19T19:21:51.382Z,9.02
2017-09-19T19:27:30.451Z,10.55
2017-09-19T19:30:05.012Z,11.18
2017-09-19T19:32:39.394Z,10.50
2017-09-19T19:35:18.914Z,8.85
2017-09-19T19:37:51.919Z,8.10
2017-09-19T19:40:27.691Z,9.95
2017-09-19T19:42:59.846Z,14.27
2017-09-19T19:45:48.858Z,11.02
2017-09-19T19:48:17.794Z,11.52
2017-09-19T19:50:46.834Z,11.25
2017-09-19T19:53:14.858Z,10.30
2017-09-19T19:55:42.950Z,12.37
2017-09-19T19:58:14.886Z,10.25
2017-09-19T20:00:42.930Z,10.68
2017-09-19T20:03:12.866Z,11.93
2017-09-19T20:05:44.530Z,11.20
2017-09-19T20:08:18.283Z,11.63
2017-09-19T20:10:47.070Z,10.85
2017-09-19T20:13:16.006Z,10.30
2017-09-19T20:15:44.030Z,12.25
2017-09-19T20:18:14.018Z,11.45
2017-09-19T20:20:42.810Z,12.55
2017-09-19T20:23:11.591Z,9.73
2017-09-19T20:25:44.962Z,9.60
2017-09-19T20:28:12.990Z,9.35
2017-09-19T20:30:41.007Z,10.35
2017-09-19T20:33:09.046Z,10.05
2017-09-19T20:35:43.109Z,13.23
2017-09-19T20:38:13.866Z,11.20
2017-09-19T20:40:42.814Z,12.02
2017-09-19T20:43:11.834Z,12.32
2017-09-19T20:45:41.574Z,11.80
2017-09-19T20:48:19.522Z,14.07
2017-09-19T20:51:01.050Z,12.82
2017-09-19T20:53:31.010Z,14.45
2017-09-19T20:55:59.058Z,19.58
2017-09-19T20:58:27.117Z,14.68
2017-09-19T21:01:00.849Z,12.85
2017-09-19T21:03:34.485Z,13.88
2017-09-19T21:06:09.086Z,13.43
2017-09-19T21:08:45.733Z,14.27
2017-09-19T21:11:19.473Z,13.65
2017-09-19T21:13:55.074Z,12.50
2017-09-19T21:16:32.114Z,13.43
2017-09-19T21:19:08.401Z,13.02
2017-09-19T21:21:36.433Z,14.75
2017-09-19T21:24:09.177Z,15.52
2017-09-19T21:26:38.105Z,16.23
2017-09-19T21:29:07.114Z,16.58
2017-09-19T21:31:44.245Z,10.23
2017-09-19T21:34:14.187Z,10.02
2017-09-19T21:36:42.213Z,10.20
2017-09-19T21:39:13.917Z,10.18
2017-09-19T21:41:43.930Z,10.55
2017-09-19T21:44:11.953Z,9.65
2017-09-19T21:46:45.985Z,8.85
2017-09-19T21:49:17.241Z,9.73
2017-09-19T21:51:46.257Z,10.10
2017-09-19T21:54:14.289Z,9.10
2017-09-19T21:56:47.962Z,9.25
2017-09-19T21:59:21.809Z,14.48
2017-09-19T22:01:52.873Z,11.57
2017-09-19T22:04:24.013Z,12.40
2017-09-19T22:06:55.601Z,9.48
2017-09-19T22:09:23.629Z,8.85
2017-09-19T22:11:51.653Z,9.50
2017-09-19T22:14:24.893Z,12.07
2017-09-19T22:16:52.913Z,9.10
2017-09-19T22:19:21.189Z,11.38
2017-09-19T22:22:00.665Z,11.02
2017-09-19T22:27:27.337Z,11.82
2017-09-19T22:30:00.137Z,12.10
2017-09-19T22:32:29.115Z,11.95
2017-09-19T22:35:01.681Z,12.40
2017-09-19T22:37:29.721Z,12.85
2017-09-19T22:39:59.668Z,13.45
2017-09-19T22:42:28.664Z,12.20
2017-09-19T22:45:01.725Z,12.75
2017-09-19T22:47:36.232Z,13.95
2017-09-19T22:50:08.393Z,10.68
2017-09-19T22:52:49.881Z,12.25
2017-09-19T22:55:18.969Z,12.18
2017-09-19T22:57:52.949Z,12.55
2017-09-19T23:00:24.992Z,12.23
2017-09-19T23:03:17.185Z,10.35
2017-09-19T23:05:47.160Z,8.93
2017-09-19T23:08:15.952Z,10.80
2017-09-19T23:10:45.745Z,12.50
2017-09-19T23:13:14.757Z,12.80
2017-09-19T23:15:45.464Z,16.17
2017-09-19T23:18:30.972Z,10.85
2017-09-19T23:20:59.764Z,9.95
2017-09-19T23:23:35.060Z,12.40
2017-09-19T23:26:04.052Z,11.38
2017-09-19T23:28:35.932Z,11.73
2017-09-19T23:31:07.672Z,10.43
2017-09-19T23:33:51.168Z,10.75
2017-09-19T23:36:28.367Z,18.58
2017-09-19T23:39:01.392Z,14.07
2017-09-19T23:41:35.188Z,15.80
2017-09-19T23:44:19.712Z,13.02
2017-09-19T23:46:47.740Z,12.48
2017-09-19T23:52:09.869Z,15.32
2017-09-19T23:54:44.777Z,17.60
2017-09-19T23:57:13.780Z,16.20
2017-09-19T23:59:42.771Z,21.08
